createdAt,value
2022-09-10T00:01:27.612Z,4.05
2022-09-10T00:03:54.870Z,3.85
2022-09-10T00:06:24.951Z,4.45
2022-09-10T00:08:52.753Z,4.60
2022-09-10T00:11:20.881Z,4.07
2022-09-10T00:13:50.702Z,4.05
2022-09-10T00:16:20.670Z,4.50
2022-09-10T00:18:50.172Z,4.53
2022-09-10T00:21:20.985Z,4.60
2022-09-10T00:23:48.478Z,5.28
2022-09-10T00:26:22.361Z,4.82
2022-09-10T00:28:51.141Z,4.43
2022-09-10T00:31:21.921Z,5.47
2022-09-10T00:33:52.518Z,5.25
2022-09-10T00:36:21.915Z,5.93
2022-09-10T00:38:50.712Z,5.50
2022-09-10T00:41:19.497Z,5.30
2022-09-10T00:43:57.959Z,5.45
2022-09-10T00:46:47.864Z,5.28
2022-09-10T00:49:34.778Z,5.05
2022-09-10T00:52:02.607Z,4.93
2022-09-10T00:54:34.605Z,5.65
2022-09-10T00:57:06.245Z,6.43
2022-09-10T00:59:33.493Z,6.10
2022-09-10T01:02:01.166Z,6.18
2022-09-10T01:04:32.375Z,5.93
2022-09-10T01:07:00.491Z,6.40
2022-09-10T01:09:28.755Z,6.95
2022-09-10T01:12:39.888Z,6.18
2022-09-10T01:15:24.657Z,6.00
2022-09-10T01:18:11.531Z,7.60
2022-09-10T01:21:10.984Z,6.25
2022-09-10T01:23:52.896Z,6.97
2022-09-10T01:26:28.366Z,6.90
2022-09-10T01:29:01.312Z,7.35
2022-09-10T01:31:37.041Z,7.05
2022-09-10T01:34:16.447Z,7.88
2022-09-10T01:36:48.167Z,7.43
2022-09-10T01:39:20.225Z,6.90
2022-09-10T01:41:49.247Z,6.72
2022-09-10T01:44:43.940Z,7.68
2022-09-10T01:47:45.483Z,7.28
2022-09-10T01:50:43.437Z,7.15
2022-09-10T01:53:14.030Z,7.47
2022-09-10T01:55:59.995Z,7.50
2022-09-10T01:58:26.529Z,6.78
2022-09-10T02:01:05.646Z,7.50
2022-09-10T02:03:36.173Z,7.70
2022-09-10T02:06:04.799Z,7.78
2022-09-10T02:08:39.375Z,7.00
2022-09-10T02:11:11.979Z,8.07
2022-09-10T02:13:43.755Z,7.35
2022-09-10T02:16:15.331Z,8.43
2022-09-10T02:18:42.728Z,7.32
2022-09-10T02:21:12.234Z,7.55
2022-09-10T02:23:50.628Z,7.88
2022-09-10T02:26:19.854Z,7.30
2022-09-10T02:28:49.591Z,8.27
2022-09-10T02:31:18.675Z,7.93
2022-09-10T02:33:45.439Z,8.48
2022-09-10T02:36:11.991Z,8.07
2022-09-10T02:38:38.624Z,8.23
2022-09-10T02:41:05.227Z,8.52
2022-09-10T02:43:31.758Z,7.53
2022-09-10T02:46:02.418Z,7.80
2022-09-10T02:48:31.202Z,8.50
2022-09-10T02:50:58.089Z,8.20
2022-09-10T02:53:26.065Z,7.97
2022-09-10T02:55:52.601Z,8.57
2022-09-10T02:58:26.369Z,8.00
2022-09-10T03:00:53.454Z,9.23
2022-09-10T03:03:19.974Z,7.93
2022-09-10T03:05:48.909Z,8.30
2022-09-10T03:08:15.447Z,9.95
2022-09-10T03:10:41.962Z,10.43
2022-09-10T03:13:08.492Z,9.75
2022-09-10T03:15:38.259Z,9.35
2022-09-10T03:18:05.711Z,9.48
2022-09-10T03:20:32.342Z,9.75
2022-09-10T03:23:01.514Z,8.65
2022-09-10T03:25:28.034Z,9.27
2022-09-10T03:27:54.687Z,9.43
2022-09-10T03:30:23.767Z,9.32
2022-09-10T03:32:53.685Z,9.60
2022-09-10T03:35:20.269Z,9.35
2022-09-10T03:37:49.198Z,9.13
2022-09-10T03:40:18.221Z,9.55
2022-09-10T03:42:45.985Z,9.13
2022-09-10T03:45:13.713Z,9.63
2022-09-10T03:47:40.678Z,9.20
2022-09-10T03:50:07.684Z,8.73
2022-09-10T03:52:34.178Z,9.38
2022-09-10T03:55:00.744Z,9.48
2022-09-10T03:57:30.442Z,9.93
2022-09-10T03:59:56.987Z,9.90
2022-09-10T04:02:23.553Z,10.13
2022-09-10T04:04:54.854Z,9.85
2022-09-10T04:07:23.630Z,9.52
2022-09-10T04:09:50.084Z,9.82
2022-09-10T04:12:17.009Z,8.90
2022-09-10T04:14:45.497Z,10.65
2022-09-10T04:17:12.841Z,9.85
2022-09-10T04:19:40.229Z,9.60
2022-09-10T04:22:11.550Z,10.27
2022-09-10T04:24:40.781Z,10.10
2022-09-10T04:27:07.376Z,10.73
2022-09-10T04:29:33.874Z,10.27
2022-09-10T04:32:03.435Z,10.50
2022-09-10T04:34:29.935Z,11.68
2022-09-10T04:36:56.419Z,11.15
2022-09-10T04:39:22.906Z,11.32
2022-09-10T04:41:49.438Z,10.90
2022-09-10T04:44:20.057Z,11.40
2022-09-10T04:46:47.732Z,11.10
2022-09-10T04:49:16.523Z,11.20
2022-09-10T04:51:45.718Z,11.73
2022-09-10T04:54:15.120Z,12.25
2022-09-10T04:56:46.575Z,11.43
2022-09-10T04:59:15.330Z,11.25
2022-09-10T05:01:42.168Z,11.88
2022-09-10T05:04:11.374Z,11.82
2022-09-10T05:06:37.946Z,11.98
2022-09-10T05:09:04.421Z,11.75
2022-09-10T05:11:33.466Z,12.52
2022-09-10T05:14:02.190Z,12.43
2022-09-10T05:16:28.834Z,11.95
2022-09-10T05:18:58.741Z,12.95
2022-09-10T05:21:25.252Z,13.15
2022-09-10T05:23:51.834Z,12.65
2022-09-10T05:26:18.326Z,12.38
2022-09-10T05:28:44.840Z,13.13
2022-09-10T05:31:13.965Z,13.93
2022-09-10T05:33:40.809Z,13.43
2022-09-10T05:36:11.657Z,12.52
2022-09-10T05:38:40.096Z,12.55
2022-09-10T05:41:10.849Z,13.10
2022-09-10T05:43:37.578Z,13.10
2022-09-10T05:46:04.930Z,13.30
2022-09-10T05:48:31.629Z,13.07
2022-09-10T05:51:04.241Z,12.85
2022-09-10T05:53:34.158Z,14.05
2022-09-10T05:56:11.120Z,13.45
2022-09-10T05:58:40.413Z,13.85
2022-09-10T06:01:09.328Z,14.68
2022-09-10T06:03:36.955Z,13.82
2022-09-10T06:06:07.006Z,13.70
2022-09-10T06:08:37.920Z,13.93
2022-09-10T06:11:08.423Z,14.65
2022-09-10T06:13:35.765Z,13.15
2022-09-10T06:16:03.064Z,14.00
2022-09-10T06:18:30.369Z,14.15
2022-09-10T06:21:13.717Z,14.35
2022-09-10T06:23:40.293Z,13.52
2022-09-10T06:26:10.299Z,13.90
2022-09-10T06:28:37.660Z,13.63
2022-09-10T06:31:08.459Z,13.68
2022-09-10T06:33:37.541Z,13.52
2022-09-10T06:36:04.275Z,14.23
2022-09-10T06:38:36.653Z,14.07
2022-09-10T06:41:08.226Z,14.50
2022-09-10T06:43:37.960Z,13.63
2022-09-10T06:46:31.984Z,13.50
2022-09-10T06:49:04.278Z,13.85
2022-09-10T06:51:31.709Z,12.77
2022-09-10T06:54:01.469Z,12.48
2022-09-10T06:57:53.505Z,12.52
2022-09-10T06:59:25.140Z,12.32
2022-09-10T07:01:51.818Z,12.43
2022-09-10T07:04:22.046Z,13.60
2022-09-10T07:06:48.897Z,11.80
2022-09-10T07:09:17.978Z,13.10
2022-09-10T07:11:46.710Z,13.48
2022-09-10T07:14:13.927Z,13.70
2022-09-10T07:16:44.343Z,14.38
2022-09-10T07:19:13.433Z,14.50
2022-09-10T07:21:39.967Z,13.68
2022-09-10T07:24:06.830Z,13.35
2022-09-10T07:26:33.332Z,13.05
2022-09-10T07:29:00.283Z,13.35
2022-09-10T07:31:30.353Z,13.82
2022-09-10T07:33:58.252Z,12.88
2022-09-10T07:36:25.638Z,12.95
2022-09-10T07:39:03.490Z,12.95
2022-09-10T07:41:33.127Z,12.68
2022-09-10T07:43:59.722Z,13.40
2022-09-10T07:46:31.011Z,12.98
2022-09-10T07:49:01.705Z,12.13
2022-09-10T07:51:33.102Z,13.57
2022-09-10T07:54:00.195Z,12.10
2022-09-10T07:56:27.224Z,12.57
2022-09-10T07:58:57.605Z,12.15
2022-09-10T08:01:24.242Z,12.15
2022-09-10T08:03:50.950Z,12.80
2022-09-10T08:06:17.965Z,12.20
2022-09-10T08:08:46.009Z,12.80
2022-09-10T08:11:21.369Z,12.30
2022-09-10T08:14:04.492Z,12.50
2022-09-10T08:16:41.239Z,11.88
2022-09-10T08:19:15.378Z,10.70
2022-09-10T08:21:42.020Z,11.88
2022-09-10T08:24:13.266Z,12.20
2022-09-10T08:26:43.736Z,9.77
2022-09-10T08:29:13.291Z,9.25
2022-09-10T08:31:41.242Z,9.20
2022-09-10T08:34:13.862Z,8.52
2022-09-10T08:36:40.582Z,8.18
2022-09-10T08:39:08.536Z,7.30
2022-09-10T08:41:41.285Z,7.50
2022-09-10T08:44:37.338Z,7.50
2022-09-10T08:47:22.425Z,6.47
2022-09-10T08:49:53.618Z,6.20
2022-09-10T08:52:31.915Z,6.20
2022-09-10T08:55:28.725Z,6.05
2022-09-10T08:58:24.404Z,6.03
2022-09-10T09:01:05.473Z,6.53
2022-09-10T09:03:45.650Z,6.38
2022-09-10T09:06:46.527Z,6.00
2022-09-10T09:09:17.800Z,6.18
2022-09-10T09:11:47.460Z,5.95
2022-09-10T09:14:19.411Z,5.45
2022-09-10T09:17:07.626Z,5.05
2022-09-10T09:19:58.263Z,4.93
2022-09-10T09:22:44.081Z,5.00
2022-09-10T09:25:41.024Z,5.35
2022-09-10T09:28:19.241Z,5.03
2022-09-10T09:30:50.813Z,5.30
2022-09-10T09:33:23.301Z,5.05
2022-09-10T09:35:57.218Z,5.30
2022-09-10T09:38:50.107Z,4.45
2022-09-10T09:41:33.460Z,5.18
2022-09-10T09:44:16.807Z,4.80
2022-09-10T09:46:45.513Z,4.45
2022-09-10T09:49:19.246Z,3.83
2022-09-10T09:51:55.151Z,4.03
2022-09-10T09:57:22.224Z,3.20
2022-09-10T09:59:56.816Z,2.95
2022-09-10T10:02:28.330Z,2.42
2022-09-10T10:05:07.961Z,2.10
2022-09-10T10:07:37.907Z,2.40
2022-09-10T10:10:19.958Z,2.20
2022-09-10T10:12:51.265Z,2.33
2022-09-10T10:15:43.415Z,2.20
2022-09-10T10:18:23.295Z,2.55
2022-09-10T10:21:11.648Z,2.25
2022-09-10T10:23:40.273Z,2.92
2022-09-10T10:26:22.367Z,2.58
2022-09-10T10:29:01.481Z,2.80
2022-09-10T10:31:40.562Z,2.53
2022-09-10T10:34:10.132Z,2.00
2022-09-10T10:36:43.508Z,1.98
2022-09-10T10:39:36.511Z,1.10
2022-09-10T10:42:13.636Z,0.70
2022-09-10T10:44:48.013Z,0.70
2022-09-10T10:47:17.374Z,0.90
2022-09-10T10:49:46.738Z,1.30
2022-09-10T10:52:41.838Z,1.48
2022-09-10T10:55:25.948Z,1.30
2022-09-10T10:58:17.661Z,1.85
2022-09-10T11:00:55.816Z,2.20
2022-09-10T11:03:31.937Z,2.67
2022-09-10T11:06:08.269Z,2.50
2022-09-10T11:08:39.618Z,3.00
2022-09-10T11:11:20.856Z,3.22
2022-09-10T11:13:59.558Z,4.07
2022-09-10T11:16:58.498Z,4.85
2022-09-10T11:20:28.979Z,5.47
2022-09-10T11:23:11.098Z,6.60
2022-09-10T11:25:52.203Z,8.00
2022-09-10T11:28:26.699Z,7.75
2022-09-10T11:31:09.987Z,8.38
2022-09-10T11:33:57.286Z,9.15
2022-09-10T11:36:56.650Z,9.95
2022-09-10T11:39:45.744Z,10.15
2022-09-10T11:42:31.497Z,9.55
2022-09-10T11:45:11.874Z,10.73
2022-09-10T11:47:53.574Z,10.93
2022-09-10T11:50:41.326Z,11.05
2022-09-10T11:53:18.169Z,9.55
2022-09-10T11:56:14.981Z,8.65
2022-09-10T11:59:02.101Z,9.07
2022-09-10T12:01:50.109Z,8.52
2022-09-10T12:04:40.102Z,8.00
2022-09-10T12:09:15.308Z,6.18
2022-09-10T12:10:36.584Z,6.38
2022-09-10T12:13:16.081Z,7.00
2022-09-10T12:16:30.517Z,6.70
2022-09-10T12:19:00.631Z,5.82
2022-09-10T12:21:53.575Z,5.93
2022-09-10T12:24:36.319Z,5.72
2022-09-10T12:27:11.566Z,4.40
2022-09-10T12:29:44.175Z,4.03
2022-09-10T12:32:17.024Z,3.53
2022-09-10T12:34:49.690Z,3.80
2022-09-10T12:37:31.979Z,3.05
2022-09-10T12:40:29.739Z,3.50
2022-09-10T12:43:40.985Z,2.70
2022-09-10T12:46:13.585Z,2.33
2022-09-10T12:48:58.425Z,2.50
2022-09-10T12:51:52.617Z,2.88
2022-09-10T12:54:49.979Z,3.55
2022-09-10T12:57:26.136Z,4.30
2022-09-10T13:00:26.714Z,3.80
2022-09-10T13:03:18.565Z,4.15
2022-09-10T13:05:50.220Z,4.20
2022-09-10T13:08:20.765Z,4.03
2022-09-10T13:11:01.220Z,4.40
2022-09-10T13:13:40.514Z,4.57
2022-09-10T13:16:19.188Z,4.85
2022-09-10T13:18:57.084Z,4.68
2022-09-10T13:21:31.166Z,4.90
2022-09-10T13:24:47.871Z,5.20
2022-09-10T13:27:17.648Z,5.38
2022-09-10T13:29:48.138Z,4.78
2022-09-10T13:32:27.336Z,5.78
2022-09-10T13:35:06.266Z,5.22
2022-09-10T13:38:13.774Z,4.30
2022-09-10T13:41:22.780Z,3.63
2022-09-10T13:44:13.630Z,4.30
2022-09-10T13:47:03.309Z,4.13
2022-09-10T13:50:07.908Z,3.97
2022-09-10T13:52:38.388Z,3.42
2022-09-10T13:55:09.097Z,3.53
2022-09-10T13:57:45.040Z,3.83
2022-09-10T14:00:40.562Z,3.65
2022-09-10T14:03:22.289Z,3.28
2022-09-10T14:06:12.239Z,3.08
2022-09-10T14:08:57.234Z,1.90
2022-09-10T14:11:47.511Z,2.58
2022-09-10T14:14:27.457Z,2.30
2022-09-10T14:17:11.851Z,2.40
2022-09-10T14:19:45.126Z,2.25
2022-09-10T14:22:23.285Z,1.98
2022-09-10T14:24:58.129Z,2.30
2022-09-10T14:27:32.591Z,2.15
2022-09-10T14:30:23.403Z,2.00
2022-09-10T14:32:51.074Z,2.60
2022-09-10T14:35:41.075Z,3.30
2022-09-10T14:38:47.684Z,2.65
2022-09-10T14:41:28.188Z,2.60
2022-09-10T14:44:27.540Z,2.72
2022-09-10T14:47:12.407Z,2.13
2022-09-10T14:49:47.683Z,2.60
2022-09-10T14:52:15.906Z,3.55
2022-09-10T14:54:45.079Z,3.17
2022-09-10T14:57:15.113Z,3.42
2022-09-10T14:59:45.590Z,3.28
2022-09-10T15:02:17.369Z,3.35
2022-09-10T15:04:49.980Z,3.20
2022-09-10T15:07:16.588Z,2.80
2022-09-10T15:09:44.525Z,2.60
2022-09-10T15:12:28.870Z,2.80
2022-09-10T15:14:59.909Z,2.45
2022-09-10T15:17:28.542Z,2.70
2022-09-10T15:19:56.367Z,3.00
2022-09-10T15:22:26.213Z,3.25
2022-09-10T15:25:12.845Z,2.83
2022-09-10T15:27:41.591Z,3.20
2022-09-10T15:30:08.499Z,2.47
2022-09-10T15:32:37.524Z,1.80
2022-09-10T15:35:05.142Z,2.03
2022-09-10T15:37:34.227Z,1.95
2022-09-10T15:40:01.175Z,1.83
2022-09-10T15:42:27.753Z,1.77
2022-09-10T15:44:57.427Z,1.48
2022-09-10T15:47:24.216Z,1.77
2022-09-10T15:49:53.470Z,1.70
2022-09-10T15:52:20.063Z,1.80
2022-09-10T15:54:46.787Z,2.10
2022-09-10T15:57:13.347Z,2.20
2022-09-10T15:59:40.669Z,2.38
2022-09-10T16:02:14.452Z,2.20
2022-09-10T16:04:43.051Z,2.40
2022-09-10T16:07:30.026Z,2.25
2022-09-10T16:10:01.577Z,2.85
2022-09-10T16:12:29.128Z,2.63
2022-09-10T16:14:56.502Z,2.55
2022-09-10T16:17:23.362Z,2.15
2022-09-10T16:19:51.348Z,2.20
2022-09-10T16:22:20.962Z,2.10
2022-09-10T16:24:47.558Z,2.60
2022-09-10T16:27:17.381Z,2.25
2022-09-10T16:29:44.044Z,2.90
2022-09-10T16:32:10.918Z,2.78
2022-09-10T16:34:39.773Z,3.10
2022-09-10T16:37:06.342Z,3.10
2022-09-10T16:39:32.914Z,2.75
2022-09-10T16:41:59.422Z,3.10
2022-09-10T16:44:26.041Z,3.00
2022-09-10T16:46:52.628Z,2.60
2022-09-10T16:49:19.826Z,2.08
2022-09-10T16:51:51.824Z,2.55
2022-09-10T16:54:22.400Z,2.10
2022-09-10T16:56:50.460Z,2.20
2022-09-10T16:59:22.544Z,2.22
2022-09-10T17:01:50.452Z,2.50
2022-09-10T17:04:27.524Z,2.35
2022-09-10T17:06:55.906Z,2.03
2022-09-10T17:09:22.650Z,2.22
2022-09-10T17:11:49.285Z,1.83
2022-09-10T17:14:18.138Z,1.88
2022-09-10T17:16:48.752Z,2.17
2022-09-10T17:19:23.581Z,1.92
2022-09-10T17:21:52.932Z,1.75
2022-09-10T17:24:24.139Z,1.90
2022-09-10T17:26:51.888Z,1.90
2022-09-10T17:29:23.075Z,1.77
2022-09-10T17:31:55.673Z,1.42
2022-09-10T17:34:24.338Z,2.05
2022-09-10T17:36:51.368Z,1.45
2022-09-10T17:39:18.501Z,2.05
2022-09-10T17:41:45.458Z,1.80
2022-09-10T17:44:12.507Z,1.70
2022-09-10T17:46:44.983Z,1.80
2022-09-10T17:49:16.630Z,1.90
2022-09-10T17:51:44.735Z,2.10
2022-09-10T17:54:14.912Z,2.10
2022-09-10T17:56:44.083Z,2.58
2022-09-10T17:59:14.830Z,2.33
2022-09-10T18:01:43.647Z,2.72
2022-09-10T18:04:17.721Z,2.53
2022-09-10T18:06:47.872Z,2.80
2022-09-10T18:09:17.007Z,2.88
2022-09-10T18:11:43.658Z,3.15
2022-09-10T18:14:21.568Z,3.28
2022-09-10T18:16:51.401Z,3.50
2022-09-10T18:19:20.980Z,4.03
2022-09-10T18:21:48.451Z,4.43
2022-09-10T18:24:19.440Z,4.53
2022-09-10T18:26:48.198Z,5.57
2022-09-10T18:29:30.041Z,5.32
2022-09-10T18:31:58.591Z,5.45
2022-09-10T18:34:27.854Z,5.18
2022-09-10T18:36:57.544Z,6.70
2022-09-10T18:39:27.316Z,6.45
2022-09-10T18:41:54.705Z,6.53
2022-09-10T18:44:24.895Z,6.45
2022-09-10T18:46:53.023Z,6.28
2022-09-10T18:49:24.593Z,7.00
2022-09-10T18:51:52.723Z,7.15
2022-09-10T18:54:23.190Z,6.22
2022-09-10T18:56:51.238Z,5.78
2022-09-10T18:59:23.803Z,5.57
2022-09-10T19:01:52.885Z,5.28
2022-09-10T19:04:23.821Z,6.03
2022-09-10T19:06:50.465Z,6.25
2022-09-10T19:09:24.029Z,5.95
2022-09-10T19:11:55.917Z,6.00
2022-09-10T19:14:26.356Z,5.95
2022-09-10T19:16:55.150Z,5.82
2022-09-10T19:19:24.299Z,6.30
2022-09-10T19:21:54.251Z,6.53
2022-09-10T19:24:37.805Z,6.70
2022-09-10T19:27:10.444Z,6.18
2022-09-10T19:29:37.147Z,6.18
2022-09-10T19:32:03.686Z,6.95
2022-09-10T19:34:31.132Z,6.82
2022-09-10T19:36:57.608Z,6.47
2022-09-10T19:39:24.175Z,6.53
2022-09-10T19:41:50.783Z,6.82
2022-09-10T19:44:18.227Z,6.93
2022-09-10T19:46:45.352Z,6.88
2022-09-10T19:49:12.644Z,6.90
2022-09-10T19:51:40.635Z,6.35
2022-09-10T19:54:07.831Z,7.10
2022-09-10T19:56:37.819Z,6.80
2022-09-10T19:59:08.711Z,7.38
2022-09-10T20:01:41.375Z,6.55
2022-09-10T20:04:10.304Z,7.57
2022-09-10T20:06:40.117Z,7.65
2022-09-10T20:09:08.098Z,8.05
2022-09-10T20:11:35.559Z,7.93
2022-09-10T20:14:13.933Z,8.70
2022-09-10T20:16:43.284Z,9.20
2022-09-10T20:19:13.115Z,8.40
2022-09-10T20:21:42.419Z,8.48
2022-09-10T20:24:10.148Z,8.10
2022-09-10T20:26:38.909Z,8.13
2022-09-10T20:29:08.027Z,7.85
2022-09-10T20:31:37.340Z,8.30
2022-09-10T20:34:08.688Z,8.50
2022-09-10T20:36:37.963Z,7.82
2022-09-10T20:39:06.473Z,8.82
2022-09-10T20:41:33.389Z,7.97
2022-09-10T20:44:01.477Z,8.45
2022-09-10T20:46:30.434Z,7.72
2022-09-10T20:49:03.228Z,8.48
2022-09-10T20:51:33.253Z,9.00
2022-09-10T20:54:00.581Z,9.23
2022-09-10T20:56:27.609Z,8.35
2022-09-10T20:58:54.290Z,8.70
2022-09-10T21:01:25.821Z,8.15
2022-09-10T21:03:54.412Z,9.13
2022-09-10T21:06:25.666Z,8.63
2022-09-10T21:08:52.617Z,9.18
2022-09-10T21:11:21.034Z,8.65
2022-09-10T21:13:53.226Z,8.75
2022-09-10T21:16:23.123Z,8.43
2022-09-10T21:18:54.868Z,8.55
2022-09-10T21:21:26.323Z,8.98
2022-09-10T21:23:55.622Z,9.75
2022-09-10T21:26:25.311Z,9.85
2022-09-10T21:28:59.914Z,10.30
2022-09-10T21:31:30.233Z,9.95
2022-09-10T21:34:02.453Z,9.68
2022-09-10T21:36:31.110Z,10.65
2022-09-10T21:39:01.841Z,10.05
2022-09-10T21:41:34.889Z,10.20
2022-09-10T21:44:06.088Z,11.82
2022-09-10T21:46:33.344Z,10.45
2022-09-10T21:49:00.677Z,10.40
2022-09-10T21:51:29.394Z,10.68
2022-09-10T21:53:57.065Z,11.98
2022-09-10T21:56:25.956Z,11.30
2022-09-10T21:58:53.672Z,10.95
2022-09-10T22:01:22.875Z,11.95
2022-09-10T22:03:50.209Z,12.68
2022-09-10T22:06:24.659Z,12.68
2022-09-10T22:08:54.541Z,12.60
2022-09-10T22:11:24.232Z,11.68
2022-09-10T22:13:55.803Z,13.13
2022-09-10T22:16:23.036Z,13.57
2022-09-10T22:18:50.747Z,11.88
2022-09-10T22:21:18.061Z,12.50
2022-09-10T22:23:45.178Z,13.10
2022-09-10T22:26:16.717Z,12.85
2022-09-10T22:28:43.674Z,12.65
2022-09-10T22:31:19.334Z,12.57
2022-09-10T22:33:53.072Z,12.95
2022-09-10T22:36:26.649Z,12.43
2022-09-10T22:39:01.209Z,12.75
2022-09-10T22:41:29.201Z,14.57
2022-09-10T22:43:57.023Z,13.95
2022-09-10T22:46:24.074Z,13.60
2022-09-10T22:48:52.937Z,14.15
2022-09-10T22:51:23.810Z,15.13
2022-09-10T22:53:52.531Z,14.15
2022-09-10T22:56:22.111Z,14.23
2022-09-10T22:58:51.630Z,14.70
2022-09-10T23:01:20.950Z,14.55
2022-09-10T23:03:50.261Z,15.70
2022-09-10T23:06:24.733Z,15.55
2022-09-10T23:08:53.603Z,15.10
2022-09-10T23:11:21.657Z,16.15
2022-09-10T23:13:54.154Z,15.35
2022-09-10T23:16:26.169Z,16.15
2022-09-10T23:18:55.265Z,15.98
2022-09-10T23:21:24.219Z,16.45
2022-09-10T23:24:12.817Z,14.70
2022-09-10T23:26:39.676Z,16.98
2022-09-10T23:29:06.663Z,15.98
2022-09-10T23:31:36.100Z,16.30
2022-09-10T23:34:09.710Z,15.77
2022-09-10T23:36:39.210Z,16.38
2022-09-10T23:39:13.018Z,15.25
2022-09-10T23:41:41.103Z,15.77
2022-09-10T23:44:09.003Z,16.45
2022-09-10T23:46:36.710Z,17.58
2022-09-10T23:49:04.751Z,16.83
2022-09-10T23:51:31.985Z,17.80
2022-09-10T23:53:59.529Z,16.73
2022-09-10T23:56:28.352Z,17.02
2022-09-10T23:58:55.790Z,17.65
